sensor_id;sensor_type;location;lat;lon;timestamp;P1;durP1;ratioP1;P2;durP2;ratioP2
44137;SDS011;29800;55.942;37.314;2022-11-15T00:01:27;1.85;;;0.80;;
44137;SDS011;29800;55.942;37.314;2022-11-15T00:04:12;3.47;;;1.00;;
44137;SDS011;29800;55.942;37.314;2022-11-15T00:06:56;4.40;;;1.17;;
44137;SDS011;29800;55.942;37.314;2022-11-15T00:09:41;1.95;;;0.75;;
44137;SDS011;29800;55.942;37.314;2022-11-15T00:12:26;6.80;;;0.98;;
44137;SDS011;29800;55.942;37.314;2022-11-15T00:15:12;4.75;;;1.23;;
44137;SDS011;29800;55.942;37.314;2022-11-15T00:17:56;3.67;;;1.20;;
44137;SDS011;29800;55.942;37.314;2022-11-15T00:20:41;4.63;;;0.98;;
44137;SDS011;29800;55.942;37.314;2022-11-15T00:23:27;3.63;;;1.25;;
44137;SDS011;29800;55.942;37.314;2022-11-15T00:26:13;4.45;;;1.08;;
44137;SDS011;29800;55.942;37.314;2022-11-15T00:28:58;4.82;;;1.00;;
44137;SDS011;29800;55.942;37.314;2022-11-15T00:31:43;4.18;;;1.10;;
44137;SDS011;29800;55.942;37.314;2022-11-15T00:34:27;5.47;;;0.93;;
44137;SDS011;29800;55.942;37.314;2022-11-15T00:37:11;5.00;;;0.90;;
44137;SDS011;29800;55.942;37.314;2022-11-15T00:39:56;3.40;;;0.80;;
44137;SDS011;29800;55.942;37.314;2022-11-15T00:42:40;1.70;;;0.80;;
44137;SDS011;29800;55.942;37.314;2022-11-15T00:45:25;7.63;;;1.58;;
44137;SDS011;29800;55.942;37.314;2022-11-15T00:48:09;4.88;;;0.90;;
44137;SDS011;29800;55.942;37.314;2022-11-15T00:50:54;4.88;;;0.80;;
44137;SDS011;29800;55.942;37.314;2022-11-15T00:53:38;3.55;;;0.98;;
44137;SDS011;29800;55.942;37.314;2022-11-15T00:56:23;3.42;;;0.90;;
44137;SDS011;29800;55.942;37.314;2022-11-15T00:59:08;3.05;;;0.68;;
44137;SDS011;29800;55.942;37.314;2022-11-15T01:01:52;3.72;;;0.75;;
44137;SDS011;29800;55.942;37.314;2022-11-15T01:04:36;4.50;;;0.88;;
44137;SDS011;29800;55.942;37.314;2022-11-15T01:07:20;1.92;;;0.68;;
44137;SDS011;29800;55.942;37.314;2022-11-15T01:10:05;4.63;;;0.88;;
44137;SDS011;29800;55.942;37.314;2022-11-15T01:12:50;5.57;;;1.25;;
44137;SDS011;29800;55.942;37.314;2022-11-15T01:15:38;6.03;;;0.85;;
44137;SDS011;29800;55.942;37.314;2022-11-15T01:18:23;4.97;;;0.70;;
44137;SDS011;29800;55.942;37.314;2022-11-15T01:21:09;3.97;;;0.98;;
44137;SDS011;29800;55.942;37.314;2022-11-15T01:23:56;5.05;;;1.20;;
44137;SDS011;29800;55.942;37.314;2022-11-15T01:26:41;5.82;;;1.20;;
44137;SDS011;29800;55.942;37.314;2022-11-15T01:29:28;3.10;;;0.90;;
44137;SDS011;29800;55.942;37.314;2022-11-15T01:32:13;4.80;;;0.80;;
44137;SDS011;29800;55.942;37.314;2022-11-15T01:34:58;2.40;;;0.60;;
44137;SDS011;29800;55.942;37.314;2022-11-15T01:37:42;4.72;;;1.02;;
44137;SDS011;29800;55.942;37.314;2022-11-15T01:40:26;2.95;;;0.75;;
44137;SDS011;29800;55.942;37.314;2022-11-15T01:43:21;4.15;;;0.80;;
44137;SDS011;29800;55.942;37.314;2022-11-15T01:49:00;4.47;;;1.00;;
44137;SDS011;29800;55.942;37.314;2022-11-15T01:51:47;3.40;;;1.05;;
44137;SDS011;29800;55.942;37.314;2022-11-15T01:54:32;5.35;;;0.95;;
44137;SDS011;29800;55.942;37.314;2022-11-15T01:57:17;4.53;;;0.93;;
44137;SDS011;29800;55.942;37.314;2022-11-15T02:00:05;3.97;;;0.80;;
44137;SDS011;29800;55.942;37.314;2022-11-15T02:02:50;6.32;;;1.33;;
44137;SDS011;29800;55.942;37.314;2022-11-15T02:05:35;3.20;;;0.70;;
44137;SDS011;29800;55.942;37.314;2022-11-15T02:08:21;5.13;;;1.02;;
44137;SDS011;29800;55.942;37.314;2022-11-15T02:11:08;5.22;;;1.20;;
44137;SDS011;29800;55.942;37.314;2022-11-15T02:13:52;5.47;;;1.17;;
44137;SDS011;29800;55.942;37.314;2022-11-15T02:16:59;7.20;;;1.00;;
44137;SDS011;29800;55.942;37.314;2022-11-15T02:38:32;4.38;;;0.95;;
44137;SDS011;29800;55.942;37.314;2022-11-15T02:41:30;6.03;;;1.98;;
44137;SDS011;29800;55.942;37.314;2022-11-15T02:44:42;4.07;;;1.08;;
44137;SDS011;29800;55.942;37.314;2022-11-15T02:47:31;5.78;;;1.10;;
44137;SDS011;29800;55.942;37.314;2022-11-15T02:50:21;5.13;;;1.20;;
44137;SDS011;29800;55.942;37.314;2022-11-15T02:53:10;7.03;;;1.25;;
44137;SDS011;29800;55.942;37.314;2022-11-15T02:55:55;5.47;;;1.15;;
44137;SDS011;29800;55.942;37.314;2022-11-15T02:58:57;6.70;;;1.35;;
44137;SDS011;29800;55.942;37.314;2022-11-15T03:08:15;6.35;;;1.30;;
44137;SDS011;29800;55.942;37.314;2022-11-15T03:11:08;5.05;;;1.25;;
44137;SDS011;29800;55.942;37.314;2022-11-15T03:20:06;6.20;;;1.58;;
44137;SDS011;29800;55.942;37.314;2022-11-15T03:22:53;4.70;;;1.30;;
44137;SDS011;29800;55.942;37.314;2022-11-15T03:25:43;4.22;;;1.40;;
44137;SDS011;29800;55.942;37.314;2022-11-15T03:28:33;4.88;;;1.65;;
44137;SDS011;29800;55.942;37.314;2022-11-15T03:31:22;2.47;;;1.05;;
44137;SDS011;29800;55.942;37.314;2022-11-15T03:34:47;6.82;;;1.48;;
44137;SDS011;29800;55.942;37.314;2022-11-15T03:40:30;5.47;;;1.20;;
44137;SDS011;29800;55.942;37.314;2022-11-15T03:43:34;2.58;;;0.90;;
44137;SDS011;29800;55.942;37.314;2022-11-15T03:46:24;6.28;;;1.20;;
44137;SDS011;29800;55.942;37.314;2022-11-15T03:49:32;5.10;;;1.20;;
44137;SDS011;29800;55.942;37.314;2022-11-15T03:52:20;5.55;;;1.70;;
44137;SDS011;29800;55.942;37.314;2022-11-15T03:57:53;6.20;;;1.13;;
44137;SDS011;29800;55.942;37.314;2022-11-15T04:00:41;6.88;;;1.02;;
44137;SDS011;29800;55.942;37.314;2022-11-15T04:03:26;4.05;;;1.20;;
44137;SDS011;29800;55.942;37.314;2022-11-15T04:06:10;5.35;;;1.05;;
44137;SDS011;29800;55.942;37.314;2022-11-15T04:08:55;8.30;;;1.20;;
44137;SDS011;29800;55.942;37.314;2022-11-15T04:11:39;6.32;;;1.30;;
44137;SDS011;29800;55.942;37.314;2022-11-15T04:14:24;8.02;;;1.35;;
44137;SDS011;29800;55.942;37.314;2022-11-15T04:17:08;2.70;;;0.93;;
44137;SDS011;29800;55.942;37.314;2022-11-15T04:19:52;4.57;;;1.15;;
44137;SDS011;29800;55.942;37.314;2022-11-15T04:22:56;5.90;;;1.35;;
44137;SDS011;29800;55.942;37.314;2022-11-15T04:26:01;5.60;;;1.52;;
44137;SDS011;29800;55.942;37.314;2022-11-15T04:28:48;6.80;;;1.10;;
44137;SDS011;29800;55.942;37.314;2022-11-15T04:31:51;7.95;;;1.10;;
44137;SDS011;29800;55.942;37.314;2022-11-15T04:34:36;3.33;;;0.98;;
44137;SDS011;29800;55.942;37.314;2022-11-15T04:37:22;2.80;;;0.80;;
44137;SDS011;29800;55.942;37.314;2022-11-15T04:40:06;4.43;;;1.00;;
44137;SDS011;29800;55.942;37.314;2022-11-15T04:42:51;2.58;;;0.90;;
44137;SDS011;29800;55.942;37.314;2022-11-15T04:45:36;3.83;;;1.27;;
44137;SDS011;29800;55.942;37.314;2022-11-15T04:48:21;5.00;;;1.20;;
44137;SDS011;29800;55.942;37.314;2022-11-15T04:51:05;6.90;;;1.20;;
44137;SDS011;29800;55.942;37.314;2022-11-15T04:53:50;4.82;;;1.83;;
44137;SDS011;29800;55.942;37.314;2022-11-15T04:56:34;9.27;;;1.48;;
44137;SDS011;29800;55.942;37.314;2022-11-15T04:59:19;4.57;;;1.20;;
44137;SDS011;29800;55.942;37.314;2022-11-15T05:02:03;2.97;;;1.10;;
44137;SDS011;29800;55.942;37.314;2022-11-15T05:04:48;6.18;;;1.58;;
44137;SDS011;29800;55.942;37.314;2022-11-15T05:07:32;3.13;;;0.93;;
44137;SDS011;29800;55.942;37.314;2022-11-15T05:10:16;2.78;;;1.10;;
44137;SDS011;29800;55.942;37.314;2022-11-15T05:13:01;2.45;;;1.10;;
44137;SDS011;29800;55.942;37.314;2022-11-15T05:15:46;4.18;;;1.20;;
44137;SDS011;29800;55.942;37.314;2022-11-15T05:18:31;2.42;;;1.00;;
44137;SDS011;29800;55.942;37.314;2022-11-15T05:21:15;5.57;;;1.30;;
44137;SDS011;29800;55.942;37.314;2022-11-15T05:24:00;4.30;;;1.10;;
44137;SDS011;29800;55.942;37.314;2022-11-15T05:26:45;8.48;;;1.10;;
44137;SDS011;29800;55.942;37.314;2022-11-15T05:29:29;3.22;;;1.23;;
44137;SDS011;29800;55.942;37.314;2022-11-15T05:32:14;4.05;;;1.42;;
44137;SDS011;29800;55.942;37.314;2022-11-15T05:34:59;3.88;;;1.10;;
44137;SDS011;29800;55.942;37.314;2022-11-15T05:37:44;5.72;;;1.40;;
44137;SDS011;29800;55.942;37.314;2022-11-15T05:40:28;2.83;;;1.02;;
44137;SDS011;29800;55.942;37.314;2022-11-15T05:43:15;5.47;;;1.23;;
44137;SDS011;29800;55.942;37.314;2022-11-15T05:45:59;2.92;;;1.20;;
44137;SDS011;29800;55.942;37.314;2022-11-15T05:48:47;5.75;;;1.55;;
44137;SDS011;29800;55.942;37.314;2022-11-15T05:51:34;5.47;;;1.35;;
44137;SDS011;29800;55.942;37.314;2022-11-15T05:54:19;5.50;;;1.42;;
44137;SDS011;29800;55.942;37.314;2022-11-15T05:57:05;8.27;;;1.50;;
44137;SDS011;29800;55.942;37.314;2022-11-15T05:59:50;4.45;;;1.10;;
44137;SDS011;29800;55.942;37.314;2022-11-15T06:02:35;7.68;;;1.10;;
44137;SDS011;29800;55.942;37.314;2022-11-15T06:05:19;8.48;;;1.40;;
44137;SDS011;29800;55.942;37.314;2022-11-15T06:08:04;4.18;;;1.48;;
44137;SDS011;29800;55.942;37.314;2022-11-15T06:10:48;5.10;;;1.60;;
44137;SDS011;29800;55.942;37.314;2022-11-15T06:13:33;8.43;;;1.40;;
44137;SDS011;29800;55.942;37.314;2022-11-15T06:16:18;8.95;;;1.23;;
44137;SDS011;29800;55.942;37.314;2022-11-15T06:19:02;6.68;;;1.50;;
44137;SDS011;29800;55.942;37.314;2022-11-15T06:21:46;3.80;;;1.20;;
44137;SDS011;29800;55.942;37.314;2022-11-15T06:24:31;8.32;;;1.42;;
44137;SDS011;29800;55.942;37.314;2022-11-15T06:27:15;4.82;;;1.40;;
44137;SDS011;29800;55.942;37.314;2022-11-15T06:30:00;3.50;;;1.10;;
44137;SDS011;29800;55.942;37.314;2022-11-15T06:32:45;6.70;;;1.50;;
44137;SDS011;29800;55.942;37.314;2022-11-15T06:35:30;9.00;;;1.33;;
44137;SDS011;29800;55.942;37.314;2022-11-15T06:38:17;6.03;;;1.52;;
44137;SDS011;29800;55.942;37.314;2022-11-15T06:41:04;6.63;;;1.60;;
44137;SDS011;29800;55.942;37.314;2022-11-15T06:43:51;9.68;;;1.60;;
44137;SDS011;29800;55.942;37.314;2022-11-15T06:46:35;6.82;;;1.40;;
44137;SDS011;29800;55.942;37.314;2022-11-15T06:49:19;7.82;;;1.58;;
44137;SDS011;29800;55.942;37.314;2022-11-15T06:52:04;6.95;;;1.70;;
44137;SDS011;29800;55.942;37.314;2022-11-15T06:54:48;8.95;;;2.38;;
44137;SDS011;29800;55.942;37.314;2022-11-15T06:57:32;9.07;;;1.90;;
44137;SDS011;29800;55.942;37.314;2022-11-15T07:00:19;7.43;;;4.30;;
44137;SDS011;29800;55.942;37.314;2022-11-15T07:03:04;11.20;;;2.08;;
44137;SDS011;29800;55.942;37.314;2022-11-15T07:05:52;7.97;;;1.98;;
44137;SDS011;29800;55.942;37.314;2022-11-15T07:08:38;6.35;;;1.67;;
44137;SDS011;29800;55.942;37.314;2022-11-15T07:11:23;9.75;;;1.75;;
44137;SDS011;29800;55.942;37.314;2022-11-15T07:14:07;5.13;;;1.45;;
44137;SDS011;29800;55.942;37.314;2022-11-15T07:16:52;15.52;;;1.60;;
44137;SDS011;29800;55.942;37.314;2022-11-15T07:19:37;5.00;;;1.63;;
44137;SDS011;29800;55.942;37.314;2022-11-15T07:22:21;10.10;;;1.73;;
44137;SDS011;29800;55.942;37.314;2022-11-15T07:25:06;11.13;;;2.53;;
44137;SDS011;29800;55.942;37.314;2022-11-15T07:27:54;9.18;;;2.05;;
44137;SDS011;29800;55.942;37.314;2022-11-15T07:30:40;5.55;;;2.10;;
44137;SDS011;29800;55.942;37.314;2022-11-15T07:33:25;5.35;;;1.88;;
44137;SDS011;29800;55.942;37.314;2022-11-15T07:36:09;11.48;;;1.73;;
44137;SDS011;29800;55.942;37.314;2022-11-15T07:38:54;4.40;;;1.70;;
44137;SDS011;29800;55.942;37.314;2022-11-15T07:41:38;5.72;;;1.60;;
44137;SDS011;29800;55.942;37.314;2022-11-15T07:44:23;7.85;;;1.50;;
44137;SDS011;29800;55.942;37.314;2022-11-15T07:47:07;3.15;;;1.48;;
44137;SDS011;29800;55.942;37.314;2022-11-15T07:49:51;10.70;;;1.70;;
44137;SDS011;29800;55.942;37.314;2022-11-15T07:52:36;8.77;;;1.73;;
44137;SDS011;29800;55.942;37.314;2022-11-15T07:55:21;6.53;;;1.52;;
44137;SDS011;29800;55.942;37.314;2022-11-15T07:58:10;11.75;;;3.50;;
44137;SDS011;29800;55.942;37.314;2022-11-15T08:00:55;9.10;;;3.08;;
44137;SDS011;29800;55.942;37.314;2022-11-15T08:03:39;11.45;;;3.50;;
44137;SDS011;29800;55.942;37.314;2022-11-15T08:06:24;6.88;;;2.55;;
44137;SDS011;29800;55.942;37.314;2022-11-15T08:09:08;15.80;;;5.80;;
44137;SDS011;29800;55.942;37.314;2022-11-15T08:11:53;13.95;;;5.15;;
44137;SDS011;29800;55.942;37.314;2022-11-15T08:14:37;25.83;;;9.77;;
44137;SDS011;29800;55.942;37.314;2022-11-15T08:17:25;26.50;;;11.80;;
44137;SDS011;29800;55.942;37.314;2022-11-15T08:20:09;22.77;;;9.45;;
44137;SDS011;29800;55.942;37.314;2022-11-15T08:22:54;9.15;;;2.83;;
44137;SDS011;29800;55.942;37.314;2022-11-15T08:25:42;4.88;;;1.50;;
44137;SDS011;29800;55.942;37.314;2022-11-15T08:28:28;11.55;;;1.88;;
44137;SDS011;29800;55.942;37.314;2022-11-15T08:31:17;5.97;;;2.13;;
44137;SDS011;29800;55.942;37.314;2022-11-15T08:34:02;8.05;;;1.85;;
44137;SDS011;29800;55.942;37.314;2022-11-15T08:36:48;8.50;;;1.98;;
44137;SDS011;29800;55.942;37.314;2022-11-15T08:39:32;8.68;;;2.00;;
44137;SDS011;29800;55.942;37.314;2022-11-15T08:42:17;6.55;;;2.22;;
44137;SDS011;29800;55.942;37.314;2022-11-15T08:45:02;10.65;;;2.08;;
44137;SDS011;29800;55.942;37.314;2022-11-15T08:47:47;7.97;;;2.47;;
44137;SDS011;29800;55.942;37.314;2022-11-15T08:50:32;7.57;;;1.77;;
44137;SDS011;29800;55.942;37.314;2022-11-15T08:53:16;9.13;;;2.60;;
44137;SDS011;29800;55.942;37.314;2022-11-15T08:56:02;7.20;;;2.55;;
44137;SDS011;29800;55.942;37.314;2022-11-15T08:58:50;10.82;;;2.80;;
44137;SDS011;29800;55.942;37.314;2022-11-15T09:01:35;8.25;;;1.73;;
44137;SDS011;29800;55.942;37.314;2022-11-15T09:04:20;7.70;;;1.92;;
44137;SDS011;29800;55.942;37.314;2022-11-15T09:07:04;9.80;;;4.25;;
44137;SDS011;29800;55.942;37.314;2022-11-15T09:09:49;6.45;;;3.05;;
44137;SDS011;29800;55.942;37.314;2022-11-15T09:12:33;11.57;;;5.57;;
44137;SDS011;29800;55.942;37.314;2022-11-15T09:15:17;9.48;;;3.05;;
44137;SDS011;29800;55.942;37.314;2022-11-15T09:18:03;7.80;;;1.90;;
44137;SDS011;29800;55.942;37.314;2022-11-15T09:20:47;10.93;;;1.80;;
44137;SDS011;29800;55.942;37.314;2022-11-15T09:23:32;7.70;;;2.90;;
44137;SDS011;29800;55.942;37.314;2022-11-15T09:26:17;11.18;;;3.17;;
44137;SDS011;29800;55.942;37.314;2022-11-15T09:29:02;10.40;;;1.88;;
44137;SDS011;29800;55.942;37.314;2022-11-15T09:31:47;12.10;;;2.20;;
44137;SDS011;29800;55.942;37.314;2022-11-15T09:34:31;9.45;;;1.88;;
44137;SDS011;29800;55.942;37.314;2022-11-15T09:37:16;7.32;;;1.73;;
44137;SDS011;29800;55.942;37.314;2022-11-15T09:40:00;4.05;;;1.83;;
44137;SDS011;29800;55.942;37.314;2022-11-15T09:42:52;18.35;;;6.38;;
44137;SDS011;29800;55.942;37.314;2022-11-15T09:49:15;7.65;;;1.88;;
44137;SDS011;29800;55.942;37.314;2022-11-15T09:51:57;8.07;;;2.08;;
44137;SDS011;29800;55.942;37.314;2022-11-15T09:54:34;6.57;;;2.00;;
44137;SDS011;29800;55.942;37.314;2022-11-15T09:57:10;12.35;;;1.85;;
44137;SDS011;29800;55.942;37.314;2022-11-15T10:00:07;10.88;;;2.33;;
44137;SDS011;29800;55.942;37.314;2022-11-15T10:05:44;11.73;;;2.30;;
44137;SDS011;29800;55.942;37.314;2022-11-15T10:11:00;6.25;;;2.05;;
44137;SDS011;29800;55.942;37.314;2022-11-15T10:13:30;6.30;;;1.95;;
44137;SDS011;29800;55.942;37.314;2022-11-15T10:16:07;6.95;;;1.80;;
44137;SDS011;29800;55.942;37.314;2022-11-15T10:18:47;9.38;;;2.10;;
44137;SDS011;29800;55.942;37.314;2022-11-15T10:24:19;8.30;;;1.98;;
44137;SDS011;29800;55.942;37.314;2022-11-15T10:26:49;7.55;;;1.75;;
44137;SDS011;29800;55.942;37.314;2022-11-15T10:29:21;6.60;;;1.80;;
44137;SDS011;29800;55.942;37.314;2022-11-15T10:31:48;10.63;;;2.40;;
44137;SDS011;29800;55.942;37.314;2022-11-15T10:34:18;7.72;;;2.08;;
44137;SDS011;29800;55.942;37.314;2022-11-15T10:36:59;6.15;;;1.90;;
44137;SDS011;29800;55.942;37.314;2022-11-15T10:39:27;15.55;;;2.20;;
44137;SDS011;29800;55.942;37.314;2022-11-15T10:41:54;9.07;;;2.20;;
44137;SDS011;29800;55.942;37.314;2022-11-15T10:49:21;8.38;;;2.17;;
44137;SDS011;29800;55.942;37.314;2022-11-15T10:54:45;11.63;;;2.25;;
44137;SDS011;29800;55.942;37.314;2022-11-15T10:57:16;12.33;;;2.30;;
44137;SDS011;29800;55.942;37.314;2022-11-15T10:59:46;6.22;;;2.33;;
44137;SDS011;29800;55.942;37.314;2022-11-15T11:02:34;10.32;;;2.92;;
44137;SDS011;29800;55.942;37.314;2022-11-15T11:05:04;6.72;;;2.25;;
44137;SDS011;29800;55.942;37.314;2022-11-15T11:07:33;10.40;;;2.80;;
44137;SDS011;29800;55.942;37.314;2022-11-15T11:10:05;8.43;;;2.05;;
44137;SDS011;29800;55.942;37.314;2022-11-15T11:12:51;9.23;;;2.17;;
44137;SDS011;29800;55.942;37.314;2022-11-15T11:15:17;6.45;;;2.28;;
44137;SDS011;29800;55.942;37.314;2022-11-15T11:20:51;8.40;;;2.83;;
44137;SDS011;29800;55.942;37.314;2022-11-15T11:37:12;10.65;;;3.03;;
44137;SDS011;29800;55.942;37.314;2022-11-15T11:48:04;8.05;;;2.53;;
44137;SDS011;29800;55.942;37.314;2022-11-15T11:50:46;10.68;;;3.00;;
44137;SDS011;29800;55.942;37.314;2022-11-15T11:55:49;11.80;;;2.85;;
44137;SDS011;29800;55.942;37.314;2022-11-15T12:06:09;9.60;;;2.63;;
44137;SDS011;29800;55.942;37.314;2022-11-15T12:08:54;8.27;;;2.50;;
44137;SDS011;29800;55.942;37.314;2022-11-15T12:11:32;8.40;;;2.22;;
44137;SDS011;29800;55.942;37.314;2022-11-15T12:14:05;7.28;;;2.15;;
44137;SDS011;29800;55.942;37.314;2022-11-15T12:16:49;10.13;;;2.30;;
44137;SDS011;29800;55.942;37.314;2022-11-15T12:19:16;10.50;;;2.22;;
44137;SDS011;29800;55.942;37.314;2022-11-15T12:21:47;10.57;;;2.42;;
44137;SDS011;29800;55.942;37.314;2022-11-15T12:24:25;7.90;;;2.58;;
44137;SDS011;29800;55.942;37.314;2022-11-15T12:29:44;12.07;;;2.60;;
44137;SDS011;29800;55.942;37.314;2022-11-15T12:32:33;12.05;;;2.65;;
44137;SDS011;29800;55.942;37.314;2022-11-15T12:35:03;10.90;;;2.47;;
44137;SDS011;29800;55.942;37.314;2022-11-15T12:37:47;11.50;;;4.63;;
44137;SDS011;29800;55.942;37.314;2022-11-15T12:45:42;8.52;;;2.70;;
44137;SDS011;29800;55.942;37.314;2022-11-15T12:58:58;8.73;;;3.35;;
44137;SDS011;29800;55.942;37.314;2022-11-15T13:04:13;12.25;;;3.65;;
44137;SDS011;29800;55.942;37.314;2022-11-15T13:11:59;12.55;;;3.25;;
44137;SDS011;29800;55.942;37.314;2022-11-15T13:17:33;10.65;;;3.25;;
44137;SDS011;29800;55.942;37.314;2022-11-15T13:22:37;15.88;;;4.18;;
44137;SDS011;29800;55.942;37.314;2022-11-15T13:28:02;12.43;;;3.33;;
44137;SDS011;29800;55.942;37.314;2022-11-15T13:30:29;15.63;;;4.05;;
44137;SDS011;29800;55.942;37.314;2022-11-15T13:32:58;10.63;;;3.30;;
44137;SDS011;29800;55.942;37.314;2022-11-15T13:35:33;10.88;;;3.15;;
44137;SDS011;29800;55.942;37.314;2022-11-15T13:38:04;10.82;;;3.83;;
44137;SDS011;29800;55.942;37.314;2022-11-15T13:40:34;10.75;;;3.72;;
44137;SDS011;29800;55.942;37.314;2022-11-15T13:48:38;11.18;;;3.47;;
44137;SDS011;29800;55.942;37.314;2022-11-15T13:51:07;11.80;;;3.60;;
44137;SDS011;29800;55.942;37.314;2022-11-15T13:53:54;14.68;;;3.80;;
44137;SDS011;29800;55.942;37.314;2022-11-15T13:56:25;15.38;;;3.92;;
44137;SDS011;29800;55.942;37.314;2022-11-15T13:58:53;13.20;;;4.22;;
44137;SDS011;29800;55.942;37.314;2022-11-15T14:01:21;11.13;;;3.80;;
44137;SDS011;29800;55.942;37.314;2022-11-15T14:03:58;12.98;;;3.90;;
44137;SDS011;29800;55.942;37.314;2022-11-15T14:06:28;12.70;;;4.32;;
44137;SDS011;29800;55.942;37.314;2022-11-15T14:11:37;14.73;;;4.32;;
44137;SDS011;29800;55.942;37.314;2022-11-15T14:14:17;20.58;;;5.88;;
44137;SDS011;29800;55.942;37.314;2022-11-15T14:16:47;29.08;;;9.13;;
44137;SDS011;29800;55.942;37.314;2022-11-15T14:27:39;12.02;;;3.60;;
44137;SDS011;29800;55.942;37.314;2022-11-15T14:30:07;11.95;;;4.38;;
44137;SDS011;29800;55.942;37.314;2022-11-15T14:32:47;11.57;;;4.13;;
44137;SDS011;29800;55.942;37.314;2022-11-15T14:35:17;11.60;;;3.78;;
44137;SDS011;29800;55.942;37.314;2022-11-15T14:37:48;19.25;;;4.28;;
44137;SDS011;29800;55.942;37.314;2022-11-15T14:40:18;11.65;;;3.95;;
44137;SDS011;29800;55.942;37.314;2022-11-15T14:42:46;10.25;;;3.80;;
44137;SDS011;29800;55.942;37.314;2022-11-15T14:45:16;7.97;;;3.20;;
44137;SDS011;29800;55.942;37.314;2022-11-15T14:47:44;15.25;;;3.75;;
44137;SDS011;29800;55.942;37.314;2022-11-15T14:50:17;11.45;;;3.47;;
44137;SDS011;29800;55.942;37.314;2022-11-15T14:55:23;11.52;;;3.80;;
44137;SDS011;29800;55.942;37.314;2022-11-15T14:57:54;11.93;;;3.97;;
44137;SDS011;29800;55.942;37.314;2022-11-15T15:00:21;12.90;;;3.97;;
44137;SDS011;29800;55.942;37.314;2022-11-15T15:02:48;11.80;;;4.28;;
44137;SDS011;29800;55.942;37.314;2022-11-15T15:05:17;12.10;;;4.18;;
44137;SDS011;29800;55.942;37.314;2022-11-15T15:07:45;11.75;;;4.10;;
44137;SDS011;29800;55.942;37.314;2022-11-15T15:10:12;9.00;;;4.30;;
44137;SDS011;29800;55.942;37.314;2022-11-15T15:12:40;9.75;;;4.03;;
44137;SDS011;29800;55.942;37.314;2022-11-15T15:15:09;10.80;;;4.43;;
44137;SDS011;29800;55.942;37.314;2022-11-15T15:17:39;14.57;;;4.35;;
44137;SDS011;29800;55.942;37.314;2022-11-15T15:20:05;11.02;;;3.80;;
44137;SDS011;29800;55.942;37.314;2022-11-15T15:22:32;11.48;;;3.90;;
44137;SDS011;29800;55.942;37.314;2022-11-15T15:24:58;15.35;;;6.82;;
44137;SDS011;29800;55.942;37.314;2022-11-15T15:27:24;23.48;;;8.55;;
44137;SDS011;29800;55.942;37.314;2022-11-15T15:29:50;38.17;;;13.82;;
44137;SDS011;29800;55.942;37.314;2022-11-15T15:32:16;37.75;;;13.85;;
44137;SDS011;29800;55.942;37.314;2022-11-15T15:34:42;32.08;;;9.98;;
44137;SDS011;29800;55.942;37.314;2022-11-15T15:39:50;15.63;;;4.90;;
44137;SDS011;29800;55.942;37.314;2022-11-15T15:42:20;9.57;;;3.92;;
44137;SDS011;29800;55.942;37.314;2022-11-15T15:44:47;11.77;;;3.92;;
44137;SDS011;29800;55.942;37.314;2022-11-15T15:47:23;9.30;;;3.83;;
44137;SDS011;29800;55.942;37.314;2022-11-15T15:49:51;8.73;;;3.38;;
44137;SDS011;29800;55.942;37.314;2022-11-15T15:52:17;11.32;;;4.75;;
44137;SDS011;29800;55.942;37.314;2022-11-15T15:54:43;11.43;;;3.83;;
44137;SDS011;29800;55.942;37.314;2022-11-15T15:57:11;9.93;;;3.88;;
44137;SDS011;29800;55.942;37.314;2022-11-15T15:59:38;12.73;;;4.13;;
44137;SDS011;29800;55.942;37.314;2022-11-15T16:02:05;9.90;;;3.88;;
44137;SDS011;29800;55.942;37.314;2022-11-15T16:04:31;7.80;;;3.65;;
44137;SDS011;29800;55.942;37.314;2022-11-15T16:06:58;10.52;;;3.15;;
44137;SDS011;29800;55.942;37.314;2022-11-15T16:09:28;7.65;;;3.20;;
44137;SDS011;29800;55.942;37.314;2022-11-15T16:12:13;6.10;;;3.00;;
44137;SDS011;29800;55.942;37.314;2022-11-15T16:14:39;7.55;;;3.08;;
44137;SDS011;29800;55.942;37.314;2022-11-15T16:17:05;7.53;;;3.67;;
44137;SDS011;29800;55.942;37.314;2022-11-15T16:19:34;15.68;;;3.78;;
44137;SDS011;29800;55.942;37.314;2022-11-15T16:22:00;11.40;;;3.72;;
44137;SDS011;29800;55.942;37.314;2022-11-15T16:24:26;11.88;;;4.00;;
44137;SDS011;29800;55.942;37.314;2022-11-15T16:26:52;7.10;;;3.72;;
44137;SDS011;29800;55.942;37.314;2022-11-15T16:29:19;9.43;;;3.50;;
44137;SDS011;29800;55.942;37.314;2022-11-15T16:31:45;8.95;;;3.85;;
44137;SDS011;29800;55.942;37.314;2022-11-15T16:34:11;9.13;;;3.70;;
44137;SDS011;29800;55.942;37.314;2022-11-15T16:36:37;8.43;;;4.18;;
44137;SDS011;29800;55.942;37.314;2022-11-15T16:39:03;7.97;;;4.22;;
44137;SDS011;29800;55.942;37.314;2022-11-15T16:41:29;11.13;;;4.65;;
44137;SDS011;29800;55.942;37.314;2022-11-15T16:43:55;13.15;;;5.47;;
44137;SDS011;29800;55.942;37.314;2022-11-15T16:46:23;14.30;;;5.50;;
44137;SDS011;29800;55.942;37.314;2022-11-15T16:48:50;14.63;;;6.15;;
44137;SDS011;29800;55.942;37.314;2022-11-15T16:51:17;13.85;;;5.45;;
44137;SDS011;29800;55.942;37.314;2022-11-15T16:53:43;14.00;;;5.60;;
44137;SDS011;29800;55.942;37.314;2022-11-15T16:56:28;12.85;;;4.88;;
44137;SDS011;29800;55.942;37.314;2022-11-15T16:58:55;9.23;;;4.35;;
44137;SDS011;29800;55.942;37.314;2022-11-15T17:01:27;11.50;;;4.57;;
44137;SDS011;29800;55.942;37.314;2022-11-15T17:03:58;12.90;;;4.35;;
44137;SDS011;29800;55.942;37.314;2022-11-15T17:06:37;9.85;;;4.32;;
44137;SDS011;29800;55.942;37.314;2022-11-15T17:09:05;12.50;;;4.50;;
44137;SDS011;29800;55.942;37.314;2022-11-15T17:11:32;9.73;;;3.97;;
44137;SDS011;29800;55.942;37.314;2022-11-15T17:13:58;11.23;;;4.22;;
44137;SDS011;29800;55.942;37.314;2022-11-15T17:16:24;15.65;;;5.85;;
44137;SDS011;29800;55.942;37.314;2022-11-15T17:18:51;16.02;;;6.00;;
44137;SDS011;29800;55.942;37.314;2022-11-15T17:21:19;14.60;;;4.70;;
44137;SDS011;29800;55.942;37.314;2022-11-15T17:23:47;10.20;;;4.78;;
44137;SDS011;29800;55.942;37.314;2022-11-15T17:26:13;12.50;;;5.78;;
44137;SDS011;29800;55.942;37.314;2022-11-15T17:28:41;12.38;;;4.57;;
44137;SDS011;29800;55.942;37.314;2022-11-15T17:31:08;14.35;;;5.47;;
44137;SDS011;29800;55.942;37.314;2022-11-15T17:33:35;11.70;;;5.38;;
44137;SDS011;29800;55.942;37.314;2022-11-15T17:36:03;15.95;;;5.97;;
44137;SDS011;29800;55.942;37.314;2022-11-15T17:38:31;14.02;;;4.85;;
44137;SDS011;29800;55.942;37.314;2022-11-15T17:41:08;22.02;;;8.32;;
44137;SDS011;29800;55.942;37.314;2022-11-15T17:43:37;23.23;;;8.60;;
44137;SDS011;29800;55.942;37.314;2022-11-15T17:46:04;17.20;;;7.55;;
44137;SDS011;29800;55.942;37.314;2022-11-15T17:48:32;19.38;;;7.97;;
44137;SDS011;29800;55.942;37.314;2022-11-15T17:50:59;15.77;;;7.13;;
44137;SDS011;29800;55.942;37.314;2022-11-15T17:53:27;13.50;;;6.22;;
44137;SDS011;29800;55.942;37.314;2022-11-15T17:56:01;15.43;;;6.03;;
44137;SDS011;29800;55.942;37.314;2022-11-15T17:58:28;17.77;;;6.43;;
44137;SDS011;29800;55.942;37.314;2022-11-15T18:00:57;11.32;;;5.70;;
44137;SDS011;29800;55.942;37.314;2022-11-15T18:03:38;13.32;;;6.65;;
44137;SDS011;29800;55.942;37.314;2022-11-15T18:06:04;12.65;;;6.30;;
44137;SDS011;29800;55.942;37.314;2022-11-15T18:08:31;12.82;;;6.28;;
44137;SDS011;29800;55.942;37.314;2022-11-15T18:11:03;14.55;;;6.65;;
44137;SDS011;29800;55.942;37.314;2022-11-15T18:13:34;21.80;;;7.78;;